createdAt,value
2022-12-31T00:00:26.542Z,0.40
2022-12-31T00:01:28.654Z,0.40
2022-12-31T00:02:31.846Z,0.30
2022-12-31T00:03:34.778Z,0.40
2022-12-31T00:04:39.085Z,0.40
2022-12-31T00:05:41.051Z,0.40
2022-12-31T00:06:43.967Z,0.40
2022-12-31T00:07:45.879Z,0.40
2022-12-31T00:08:49.620Z,0.38
2022-12-31T00:09:51.627Z,0.40
2022-12-31T00:10:54.615Z,0.40
2022-12-31T00:11:56.681Z,0.32
2022-12-31T00:12:59.659Z,0.40
2022-12-31T00:14:01.892Z,0.38
2022-12-31T00:15:06.448Z,0.30
2022-12-31T00:16:12.656Z,0.30
2022-12-31T00:17:15.684Z,0.30
2022-12-31T00:18:19.297Z,0.30
2022-12-31T00:19:22.236Z,0.40
2022-12-31T00:20:25.629Z,0.40
2022-12-31T00:21:30.265Z,0.40
2022-12-31T00:22:32.210Z,0.30
2022-12-31T00:23:35.687Z,0.40
2022-12-31T00:24:37.592Z,0.20
2022-12-31T00:25:40.543Z,0.30
2022-12-31T00:26:43.401Z,0.40
2022-12-31T00:27:45.341Z,0.30
2022-12-31T00:28:49.198Z,0.20
2022-12-31T00:29:51.245Z,0.25
2022-12-31T00:30:54.210Z,0.38
2022-12-31T00:31:56.136Z,0.30
2022-12-31T00:32:59.066Z,0.30
2022-12-31T00:34:01.069Z,0.40
2022-12-31T00:35:04.247Z,0.30
2022-12-31T00:36:13.198Z,0.22
2022-12-31T00:37:18.725Z,0.45
2022-12-31T00:38:20.689Z,0.40
2022-12-31T00:39:23.727Z,0.28
2022-12-31T00:40:25.701Z,0.30
2022-12-31T00:41:29.620Z,0.47
2022-12-31T00:42:31.516Z,0.30
2022-12-31T00:43:35.034Z,0.30
2022-12-31T00:44:38.048Z,0.30
2022-12-31T00:45:39.925Z,0.32
2022-12-31T00:47:43.693Z,0.30
2022-12-31T00:48:46.975Z,0.20
2022-12-31T00:49:48.922Z,0.40
2022-12-31T00:50:52.487Z,0.38
2022-12-31T00:51:55.728Z,0.38
2022-12-31T00:52:58.657Z,0.40
2022-12-31T00:54:02.101Z,0.30
2022-12-31T00:55:04.567Z,0.30
2022-12-31T00:56:11.271Z,0.30
2022-12-31T00:57:16.401Z,0.40
2022-12-31T00:58:19.391Z,0.25
2022-12-31T00:59:21.298Z,0.30
2022-12-31T01:00:24.466Z,0.30
2022-12-31T01:01:29.280Z,0.25
2022-12-31T01:02:32.534Z,0.40
2022-12-31T01:03:34.514Z,0.30
2022-12-31T01:04:37.645Z,0.30
2022-12-31T01:05:39.535Z,0.32
2022-12-31T01:06:43.122Z,0.40
2022-12-31T01:07:46.409Z,0.35
2022-12-31T01:08:50.919Z,0.30
2022-12-31T01:09:53.917Z,0.30
2022-12-31T01:11:14.272Z,0.30
2022-12-31T01:12:17.184Z,0.30
2022-12-31T01:13:19.271Z,0.30
2022-12-31T01:14:22.277Z,0.30
2022-12-31T01:15:24.323Z,0.30
2022-12-31T01:16:30.023Z,0.35
2022-12-31T01:17:32.090Z,0.32
2022-12-31T01:18:35.032Z,0.40
2022-12-31T01:19:38.028Z,0.30
2022-12-31T01:20:42.042Z,0.38
2022-12-31T01:21:46.283Z,0.38
2022-12-31T01:22:49.649Z,0.30
2022-12-31T01:23:52.744Z,0.60
2022-12-31T01:24:54.719Z,0.30
2022-12-31T01:26:00.477Z,0.60
2022-12-31T01:27:03.401Z,0.40
2022-12-31T01:28:06.158Z,0.40
2022-12-31T01:29:11.219Z,0.40
2022-12-31T01:30:13.601Z,0.30
2022-12-31T01:31:18.466Z,0.40
2022-12-31T01:32:21.446Z,0.30
2022-12-31T01:33:23.382Z,0.30
2022-12-31T01:34:28.115Z,0.32
2022-12-31T01:35:30.044Z,0.45
2022-12-31T01:36:35.086Z,0.40
2022-12-31T01:37:36.983Z,0.30
2022-12-31T01:38:42.478Z,0.30
2022-12-31T01:39:44.482Z,0.40
2022-12-31T01:40:47.452Z,0.55
2022-12-31T01:41:50.972Z,0.38
2022-12-31T01:42:56.417Z,0.30
2022-12-31T01:44:01.374Z,0.55
2022-12-31T01:45:03.694Z,0.30
2022-12-31T01:46:07.016Z,0.50
2022-12-31T01:47:15.947Z,0.40
2022-12-31T01:48:23.528Z,0.45
2022-12-31T01:49:38.825Z,0.30
2022-12-31T01:50:42.952Z,0.70
2022-12-31T01:51:49.386Z,0.35
2022-12-31T01:52:58.006Z,0.30
2022-12-31T01:54:03.983Z,0.30
2022-12-31T01:55:14.396Z,0.30
2022-12-31T01:56:16.859Z,0.40
2022-12-31T01:57:20.569Z,0.68
2022-12-31T01:58:28.829Z,0.30
2022-12-31T01:59:32.895Z,0.30
2022-12-31T02:00:36.286Z,0.30
2022-12-31T02:01:39.182Z,0.50
2022-12-31T02:02:42.310Z,0.40
2022-12-31T02:03:44.380Z,0.38
2022-12-31T02:04:48.212Z,0.50
2022-12-31T02:05:55.088Z,0.45
2022-12-31T02:07:01.059Z,0.30
2022-12-31T02:08:03.717Z,0.30
2022-12-31T02:09:08.444Z,0.40
2022-12-31T02:10:13.311Z,0.30
2022-12-31T02:11:25.288Z,0.47
2022-12-31T02:12:27.284Z,0.38
2022-12-31T02:13:30.199Z,0.30
2022-12-31T02:14:34.025Z,0.30
2022-12-31T02:15:47.253Z,0.30
2022-12-31T02:16:56.534Z,0.45
2022-12-31T02:18:08.595Z,0.30
2022-12-31T02:19:38.581Z,0.30
2022-12-31T02:21:01.052Z,0.30
2022-12-31T02:22:10.044Z,0.40
2022-12-31T02:23:48.688Z,0.50
2022-12-31T02:25:10.381Z,0.30
2022-12-31T02:26:45.992Z,0.30
2022-12-31T02:28:04.166Z,0.50
2022-12-31T02:29:38.475Z,0.40
2022-12-31T02:30:44.415Z,0.30
2022-12-31T02:31:50.934Z,0.30
2022-12-31T02:33:10.457Z,0.30
2022-12-31T02:34:18.396Z,0.40
2022-12-31T02:35:26.001Z,0.30
2022-12-31T02:36:32.062Z,0.30
2022-12-31T02:37:36.742Z,0.30
2022-12-31T02:38:43.466Z,0.38
2022-12-31T02:39:47.071Z,0.40
2022-12-31T02:40:50.345Z,0.30
2022-12-31T02:41:52.865Z,0.50
2022-12-31T02:42:55.979Z,0.30
2022-12-31T02:43:57.911Z,0.20
2022-12-31T02:45:00.929Z,0.40
2022-12-31T02:46:12.099Z,0.40
2022-12-31T02:47:23.628Z,0.28
2022-12-31T02:48:40.423Z,0.40
2022-12-31T02:49:54.820Z,0.40
2022-12-31T02:51:06.824Z,0.30
2022-12-31T02:52:18.036Z,0.30
2022-12-31T02:53:31.044Z,0.30
2022-12-31T02:54:40.575Z,0.30
2022-12-31T02:55:47.621Z,0.20
2022-12-31T02:56:59.116Z,0.30
2022-12-31T02:58:08.174Z,0.30
2022-12-31T02:59:35.881Z,0.40
2022-12-31T03:01:03.914Z,0.30
2022-12-31T03:02:16.840Z,0.40
2022-12-31T03:03:20.360Z,0.38
2022-12-31T03:04:34.358Z,0.30
2022-12-31T03:05:41.640Z,0.40
2022-12-31T03:06:44.215Z,0.32
2022-12-31T03:07:47.586Z,0.35
2022-12-31T03:09:07.778Z,0.30
2022-12-31T03:10:11.393Z,0.20
2022-12-31T03:11:33.465Z,0.50
2022-12-31T03:12:48.403Z,0.32
2022-12-31T03:13:50.437Z,0.20
2022-12-31T03:14:53.627Z,0.50
2022-12-31T03:15:56.614Z,0.30
2022-12-31T03:16:58.559Z,0.30
2022-12-31T03:18:07.494Z,0.30
2022-12-31T03:19:27.759Z,0.35
2022-12-31T03:20:51.158Z,0.30
2022-12-31T03:22:19.903Z,0.35
2022-12-31T03:23:25.811Z,0.38
2022-12-31T03:24:46.299Z,0.43
2022-12-31T03:25:49.001Z,0.22
2022-12-31T03:26:50.881Z,0.20
2022-12-31T03:27:54.161Z,0.30
2022-12-31T03:28:56.077Z,0.40
2022-12-31T03:29:59.014Z,0.40
2022-12-31T03:31:03.489Z,0.30
2022-12-31T03:32:06.357Z,0.45
2022-12-31T03:33:11.436Z,0.40
2022-12-31T03:34:15.645Z,0.35
2022-12-31T03:35:20.359Z,0.20
2022-12-31T03:36:23.325Z,0.30
2022-12-31T03:37:25.216Z,0.30
2022-12-31T03:38:28.132Z,0.30
2022-12-31T03:39:30.117Z,0.30
2022-12-31T03:40:34.912Z,0.30
2022-12-31T03:41:36.853Z,0.30
2022-12-31T03:42:39.824Z,0.30
2022-12-31T03:43:41.769Z,0.30
2022-12-31T03:44:45.130Z,0.40
2022-12-31T03:45:49.787Z,0.30
2022-12-31T03:46:51.762Z,0.30
2022-12-31T03:47:54.698Z,0.30
2022-12-31T03:48:58.727Z,0.38
2022-12-31T03:50:01.661Z,0.30
2022-12-31T03:51:04.771Z,0.30
2022-12-31T03:52:08.648Z,0.25
2022-12-31T03:53:11.782Z,0.43
2022-12-31T03:54:13.725Z,0.40
2022-12-31T03:55:16.831Z,0.20
2022-12-31T03:56:18.786Z,0.40
2022-12-31T03:57:21.753Z,0.20
2022-12-31T03:58:23.854Z,0.40
2022-12-31T03:59:26.889Z,0.25
2022-12-31T04:00:30.218Z,0.40
2022-12-31T04:01:32.394Z,0.25
2022-12-31T04:02:35.558Z,0.30
2022-12-31T04:03:37.563Z,0.40
2022-12-31T04:04:42.668Z,0.30
2022-12-31T04:05:45.662Z,0.20
2022-12-31T04:06:47.799Z,0.30
2022-12-31T04:07:52.047Z,0.40
2022-12-31T04:08:54.028Z,0.30
2022-12-31T04:09:56.980Z,0.30
2022-12-31T04:10:58.944Z,0.38
2022-12-31T04:12:02.130Z,0.40
2022-12-31T04:13:05.416Z,0.35
2022-12-31T04:14:07.511Z,0.43
2022-12-31T04:15:12.526Z,0.38
2022-12-31T04:16:15.003Z,0.40
2022-12-31T04:17:18.101Z,0.30
2022-12-31T04:18:20.104Z,0.40
2022-12-31T04:19:23.041Z,0.35
2022-12-31T04:20:27.343Z,0.30
2022-12-31T04:21:34.792Z,0.40
2022-12-31T04:22:38.105Z,0.30
2022-12-31T04:23:39.991Z,0.25
2022-12-31T04:24:43.685Z,0.30
2022-12-31T04:25:45.723Z,0.32
2022-12-31T04:26:48.654Z,0.30
2022-12-31T04:27:51.496Z,0.40
2022-12-31T04:28:53.487Z,0.30
2022-12-31T04:29:56.423Z,0.30
2022-12-31T04:30:59.211Z,0.50
2022-12-31T04:32:02.359Z,0.30
2022-12-31T04:33:04.397Z,0.30
2022-12-31T04:34:07.457Z,0.35
2022-12-31T04:35:10.309Z,0.30
2022-12-31T04:36:14.633Z,0.43
2022-12-31T04:37:18.314Z,0.30
2022-12-31T04:38:21.457Z,0.40
2022-12-31T04:39:24.791Z,0.40
2022-12-31T04:40:26.746Z,0.40
2022-12-31T04:41:29.747Z,0.32
2022-12-31T04:42:33.988Z,0.32
2022-12-31T04:43:35.908Z,0.20
2022-12-31T04:44:38.903Z,0.30
2022-12-31T04:45:41.181Z,0.57
2022-12-31T04:46:44.259Z,0.30
2022-12-31T04:47:46.228Z,0.30
2022-12-31T04:48:49.256Z,0.30
2022-12-31T04:49:52.235Z,0.30
2022-12-31T04:50:54.194Z,0.50
2022-12-31T04:51:58.576Z,0.30
2022-12-31T04:53:00.521Z,0.38
2022-12-31T04:54:03.564Z,0.40
2022-12-31T04:55:06.359Z,0.40
2022-12-31T04:56:10.319Z,0.45
2022-12-31T04:57:13.437Z,0.40
2022-12-31T04:58:15.455Z,0.30
2022-12-31T04:59:18.467Z,0.30
2022-12-31T05:00:20.489Z,0.40
2022-12-31T05:01:23.994Z,0.40
2022-12-31T05:02:26.576Z,0.40
2022-12-31T05:03:29.629Z,0.30
2022-12-31T05:04:32.569Z,0.40
2022-12-31T05:05:39.025Z,0.30
2022-12-31T05:06:41.997Z,0.50
2022-12-31T05:07:45.272Z,0.40
2022-12-31T05:08:50.080Z,0.30
2022-12-31T05:09:51.993Z,0.30
2022-12-31T05:10:55.016Z,0.40
2022-12-31T05:11:58.784Z,0.28
2022-12-31T05:13:00.737Z,0.40
2022-12-31T05:14:03.689Z,0.50
2022-12-31T05:15:07.052Z,0.28
2022-12-31T05:16:10.373Z,0.30
2022-12-31T05:17:12.333Z,0.40
2022-12-31T05:18:15.823Z,0.30
2022-12-31T05:19:19.062Z,0.50
2022-12-31T05:20:20.948Z,0.40
2022-12-31T05:21:23.925Z,0.30
2022-12-31T05:22:31.726Z,0.30
2022-12-31T05:23:36.067Z,0.30
2022-12-31T05:24:37.998Z,0.30
2022-12-31T05:25:41.272Z,0.40
2022-12-31T05:26:43.220Z,0.50
2022-12-31T05:27:46.404Z,0.40
2022-12-31T05:28:49.329Z,0.40
2022-12-31T05:29:51.648Z,0.35
2022-12-31T05:30:54.666Z,0.47
2022-12-31T05:31:56.914Z,0.50
2022-12-31T05:32:59.809Z,0.20
2022-12-31T05:34:02.846Z,0.55
2022-12-31T05:35:05.998Z,0.40
2022-12-31T05:36:09.378Z,0.30
2022-12-31T05:37:12.058Z,0.40
2022-12-31T05:38:15.081Z,0.30
2022-12-31T05:39:18.396Z,0.35
2022-12-31T05:40:22.003Z,0.30
2022-12-31T05:41:23.969Z,0.40
2022-12-31T05:42:27.074Z,0.40
2022-12-31T05:43:29.279Z,0.40
2022-12-31T05:44:32.203Z,0.38
2022-12-31T05:45:34.184Z,0.32
2022-12-31T05:46:37.132Z,0.30
2022-12-31T05:47:39.397Z,0.38
2022-12-31T05:48:42.345Z,0.50
2022-12-31T05:49:44.375Z,0.30
2022-12-31T05:50:47.403Z,0.50
2022-12-31T05:51:49.318Z,0.32
2022-12-31T05:52:53.107Z,0.50
2022-12-31T05:53:56.081Z,0.43
2022-12-31T05:54:59.382Z,0.32
2022-12-31T05:56:02.431Z,0.30
2022-12-31T05:57:05.558Z,0.40
2022-12-31T05:58:08.661Z,0.30
2022-12-31T05:59:13.152Z,0.40
2022-12-31T06:00:16.923Z,0.50
2022-12-31T06:01:20.366Z,0.43
2022-12-31T06:02:24.165Z,0.40
2022-12-31T06:03:26.276Z,0.30
2022-12-31T06:04:29.296Z,0.32
2022-12-31T06:05:31.318Z,0.30
2022-12-31T06:06:34.328Z,0.30
2022-12-31T06:07:36.299Z,0.40
2022-12-31T06:08:40.495Z,0.32
2022-12-31T06:09:42.464Z,0.32
2022-12-31T06:10:46.792Z,0.40
2022-12-31T06:11:48.890Z,0.32
2022-12-31T06:12:51.855Z,0.40
2022-12-31T06:13:53.782Z,0.30
2022-12-31T06:14:56.789Z,0.40
2022-12-31T06:15:58.861Z,0.50
2022-12-31T06:17:02.350Z,0.30
2022-12-31T06:18:04.553Z,0.20
2022-12-31T06:19:07.895Z,0.30
2022-12-31T06:20:13.250Z,0.47
2022-12-31T06:21:15.941Z,0.30
2022-12-31T06:22:19.016Z,0.52
2022-12-31T06:23:21.964Z,0.30
2022-12-31T06:24:24.867Z,0.20
2022-12-31T06:25:29.627Z,0.40
2022-12-31T06:26:33.967Z,0.40
2022-12-31T06:27:35.985Z,0.57
2022-12-31T06:28:38.871Z,0.35
2022-12-31T06:29:40.943Z,0.45
2022-12-31T06:30:43.957Z,0.40
2022-12-31T06:31:46.012Z,0.47
2022-12-31T06:32:48.998Z,0.30
2022-12-31T06:33:53.408Z,0.40
2022-12-31T06:34:56.399Z,0.38
2022-12-31T06:35:59.885Z,0.40
2022-12-31T06:37:03.107Z,0.30
2022-12-31T06:38:05.347Z,0.50
2022-12-31T06:39:08.452Z,0.43
2022-12-31T06:40:11.762Z,0.40
2022-12-31T06:41:16.746Z,0.55
2022-12-31T06:42:20.072Z,0.40
2022-12-31T06:43:24.010Z,0.45
2022-12-31T06:44:26.075Z,0.57
2022-12-31T06:45:29.085Z,0.70
2022-12-31T06:46:31.086Z,0.50
2022-12-31T06:47:34.104Z,0.50
2022-12-31T06:48:36.436Z,0.68
2022-12-31T06:49:40.809Z,0.80
2022-12-31T06:50:43.108Z,0.80
2022-12-31T06:51:47.915Z,0.60
2022-12-31T06:52:49.827Z,0.63
2022-12-31T06:53:53.084Z,0.50
2022-12-31T06:54:56.577Z,0.40
2022-12-31T06:55:59.077Z,0.50
2022-12-31T06:57:02.354Z,0.45
2022-12-31T06:58:06.365Z,0.50
2022-12-31T06:59:24.079Z,0.40
2022-12-31T07:00:27.474Z,0.40
2022-12-31T07:01:49.373Z,0.40
2022-12-31T07:03:19.297Z,0.40
2022-12-31T07:04:51.885Z,0.32
2022-12-31T07:05:59.536Z,0.40
2022-12-31T07:07:09.009Z,0.50
2022-12-31T07:08:23.707Z,0.40
2022-12-31T07:09:33.226Z,0.30
2022-12-31T07:10:47.188Z,0.30
2022-12-31T07:12:00.721Z,0.30
2022-12-31T07:13:20.446Z,0.57
2022-12-31T07:14:30.350Z,0.40
2022-12-31T07:15:52.595Z,0.40
2022-12-31T07:17:05.656Z,0.32
2022-12-31T07:18:25.555Z,0.50
2022-12-31T07:19:35.665Z,0.80
2022-12-31T07:20:39.072Z,0.40
2022-12-31T07:21:43.994Z,0.40
2022-12-31T07:22:47.582Z,0.50
2022-12-31T07:23:50.080Z,0.40
2022-12-31T07:24:53.990Z,0.40
2022-12-31T07:26:03.682Z,0.40
2022-12-31T07:27:21.314Z,0.40
2022-12-31T07:28:38.466Z,0.60
2022-12-31T07:29:55.774Z,0.30
2022-12-31T07:31:07.193Z,0.43
2022-12-31T07:32:24.655Z,0.30
2022-12-31T07:33:44.523Z,0.40
2022-12-31T07:34:56.708Z,0.40
2022-12-31T07:36:09.365Z,0.38
2022-12-31T07:37:17.719Z,0.30
2022-12-31T07:38:30.964Z,0.45
2022-12-31T07:39:41.747Z,0.45
2022-12-31T07:40:57.917Z,0.40
2022-12-31T07:42:08.856Z,0.40
2022-12-31T07:43:18.072Z,0.30
2022-12-31T07:44:38.891Z,0.35
2022-12-31T07:45:50.280Z,0.30
2022-12-31T07:46:56.124Z,0.50
2022-12-31T07:48:02.686Z,0.50
2022-12-31T07:49:10.570Z,0.47
2022-12-31T07:50:17.443Z,0.55
2022-12-31T07:51:20.285Z,0.55
2022-12-31T07:52:23.782Z,0.40
2022-12-31T07:53:26.577Z,0.47
2022-12-31T07:54:29.421Z,0.45
2022-12-31T07:55:31.372Z,0.47
2022-12-31T07:56:34.420Z,0.50
2022-12-31T07:57:45.111Z,0.40
2022-12-31T07:59:09.111Z,0.60
2022-12-31T08:00:16.215Z,0.43
2022-12-31T08:01:33.986Z,0.57
2022-12-31T08:02:58.340Z,0.63
2022-12-31T08:04:07.203Z,0.52
2022-12-31T08:05:19.361Z,0.60
2022-12-31T08:06:31.663Z,0.55
2022-12-31T08:07:42.422Z,0.50
2022-12-31T08:08:50.925Z,0.40
2022-12-31T08:10:04.244Z,0.40
2022-12-31T08:11:16.639Z,0.45
2022-12-31T08:12:20.548Z,0.50
2022-12-31T08:13:22.773Z,0.98
2022-12-31T08:14:26.780Z,0.70
2022-12-31T08:15:31.008Z,0.70
2022-12-31T08:16:34.574Z,0.88
2022-12-31T08:17:36.857Z,0.40
2022-12-31T08:18:40.488Z,0.50
2022-12-31T08:19:43.580Z,0.60
2022-12-31T08:20:55.468Z,0.40
2022-12-31T08:22:27.835Z,0.70
2022-12-31T08:23:37.105Z,0.73
2022-12-31T08:24:56.828Z,0.40
2022-12-31T08:26:19.783Z,0.40
2022-12-31T08:27:33.818Z,0.40
2022-12-31T08:28:55.365Z,0.50
2022-12-31T08:30:04.840Z,0.40
2022-12-31T08:31:17.265Z,0.47
2022-12-31T08:32:24.938Z,0.40
2022-12-31T08:33:32.986Z,0.50
2022-12-31T08:34:47.128Z,0.40
2022-12-31T08:36:04.536Z,0.50
2022-12-31T08:37:11.755Z,0.60
2022-12-31T08:38:23.500Z,0.40
2022-12-31T08:39:40.889Z,0.47
2022-12-31T08:40:50.890Z,0.60
2022-12-31T08:41:55.201Z,0.57
2022-12-31T08:43:13.601Z,0.57
2022-12-31T08:44:26.518Z,0.50
2022-12-31T08:45:37.766Z,0.55
2022-12-31T08:46:50.824Z,0.50
2022-12-31T08:48:01.540Z,0.40
2022-12-31T08:49:06.141Z,0.40
2022-12-31T08:50:15.166Z,0.60
2022-12-31T08:51:21.478Z,0.65
2022-12-31T08:52:26.495Z,0.50
2022-12-31T08:53:28.932Z,0.60
2022-12-31T08:54:32.379Z,0.40
2022-12-31T08:55:35.095Z,0.75
2022-12-31T08:56:50.345Z,0.60
2022-12-31T08:58:08.009Z,0.30
2022-12-31T08:59:24.206Z,0.52
2022-12-31T09:00:28.934Z,0.40
2022-12-31T09:01:43.439Z,0.43
2022-12-31T09:03:27.667Z,0.57
2022-12-31T09:04:42.745Z,0.50
2022-12-31T09:05:58.225Z,0.70
2022-12-31T09:07:04.191Z,1.00
2022-12-31T09:08:17.803Z,0.85
2022-12-31T09:09:28.888Z,0.55
2022-12-31T09:10:35.477Z,0.50
2022-12-31T09:11:50.858Z,0.50
2022-12-31T09:13:04.370Z,0.68
2022-12-31T09:14:22.361Z,0.70
2022-12-31T09:15:31.391Z,0.50
2022-12-31T09:16:44.873Z,0.63
2022-12-31T09:17:50.045Z,0.60
2022-12-31T09:18:53.327Z,0.60
2022-12-31T09:19:56.766Z,0.68
2022-12-31T09:20:59.992Z,0.55
2022-12-31T09:22:03.580Z,0.40
2022-12-31T09:23:06.452Z,0.57
2022-12-31T09:24:13.400Z,0.70
2022-12-31T09:25:18.276Z,0.63
2022-12-31T09:26:38.262Z,0.80
2022-12-31T09:27:46.290Z,0.40
2022-12-31T09:29:01.252Z,0.35
2022-12-31T09:30:07.785Z,0.40
2022-12-31T09:31:17.636Z,0.40
2022-12-31T09:32:27.659Z,0.60
2022-12-31T09:33:39.817Z,0.60
2022-12-31T09:34:49.774Z,0.57
2022-12-31T09:35:56.051Z,2.10
2022-12-31T09:37:04.382Z,2.80
2022-12-31T09:38:15.314Z,0.60
2022-12-31T09:39:30.065Z,0.70
2022-12-31T09:41:11.541Z,0.63
2022-12-31T09:42:53.659Z,0.55
2022-12-31T09:44:26.265Z,0.52
2022-12-31T09:45:58.145Z,0.50
2022-12-31T09:47:46.937Z,0.50
2022-12-31T09:49:09.637Z,0.45
2022-12-31T09:50:52.637Z,0.70
2022-12-31T09:52:08.346Z,0.50
2022-12-31T09:53:39.439Z,0.60
2022-12-31T09:54:53.301Z,0.60
2022-12-31T09:56:03.997Z,0.50
2022-12-31T09:57:26.692Z,0.60
2022-12-31T09:58:42.984Z,0.60
2022-12-31T09:59:52.895Z,0.50
2022-12-31T10:01:03.325Z,0.55
2022-12-31T10:02:22.031Z,0.50
2022-12-31T10:03:40.678Z,0.60
2022-12-31T10:04:53.245Z,0.50
2022-12-31T10:06:15.615Z,6.93
2022-12-31T10:07:31.962Z,0.90
2022-12-31T10:08:49.342Z,0.90
2022-12-31T10:10:07.785Z,0.90
2022-12-31T10:11:17.798Z,0.98
2022-12-31T10:12:36.090Z,0.63
2022-12-31T10:13:55.899Z,0.60
2022-12-31T10:15:14.568Z,0.60
2022-12-31T10:16:34.873Z,0.70
2022-12-31T10:17:55.706Z,0.80
2022-12-31T10:19:24.601Z,0.80
2022-12-31T10:20:40.100Z,0.50
2022-12-31T10:22:00.165Z,0.50
2022-12-31T10:23:21.015Z,0.70
2022-12-31T10:24:43.423Z,0.60
2022-12-31T10:26:11.642Z,0.70
2022-12-31T10:27:49.239Z,0.43
2022-12-31T10:28:56.389Z,0.20
2022-12-31T10:30:03.392Z,0.50
2022-12-31T10:31:14.357Z,0.30
2022-12-31T10:32:26.259Z,0.57
2022-12-31T10:33:43.290Z,0.57
2022-12-31T10:34:56.314Z,0.50
2022-12-31T10:36:09.306Z,0.40
2022-12-31T10:37:18.727Z,0.35
2022-12-31T10:38:30.938Z,0.50
2022-12-31T10:39:52.651Z,0.50
2022-12-31T10:42:00.127Z,0.47
2022-12-31T10:43:31.331Z,0.40
2022-12-31T10:44:53.948Z,0.43
2022-12-31T10:46:35.428Z,0.68
2022-12-31T10:48:06.662Z,0.80
2022-12-31T10:49:35.126Z,0.50
2022-12-31T10:51:09.393Z,0.40
2022-12-31T10:52:54.682Z,0.47
2022-12-31T10:54:20.204Z,0.38
2022-12-31T10:55:52.741Z,0.50
2022-12-31T10:57:32.232Z,0.45
2022-12-31T10:59:15.385Z,0.52
2022-12-31T11:00:19.726Z,0.50
2022-12-31T11:01:33.753Z,0.50
2022-12-31T11:03:13.172Z,0.38
2022-12-31T11:04:40.155Z,0.68
2022-12-31T11:06:04.133Z,0.40
2022-12-31T11:07:41.103Z,0.63
2022-12-31T11:09:03.755Z,0.60
2022-12-31T11:10:30.573Z,0.50
2022-12-31T11:11:38.685Z,0.50
2022-12-31T11:13:13.674Z,0.40
2022-12-31T11:14:49.237Z,0.40
2022-12-31T11:16:16.340Z,0.50
2022-12-31T11:17:33.382Z,0.50
2022-12-31T11:18:43.516Z,0.60
2022-12-31T11:19:58.704Z,0.47
2022-12-31T11:21:21.607Z,0.50
2022-12-31T11:22:41.844Z,0.40
2022-12-31T11:23:56.656Z,0.40
2022-12-31T11:25:19.782Z,0.45
2022-12-31T11:26:35.751Z,0.40
2022-12-31T11:27:51.616Z,0.65
2022-12-31T11:29:27.082Z,0.60
2022-12-31T11:30:42.260Z,0.60
2022-12-31T11:32:10.419Z,0.40
2022-12-31T11:33:30.661Z,0.60
2022-12-31T11:35:06.142Z,0.50
2022-12-31T11:36:20.647Z,0.43
2022-12-31T11:37:41.539Z,0.60
2022-12-31T11:38:51.157Z,0.35
2022-12-31T11:40:02.150Z,0.40
2022-12-31T11:41:09.035Z,0.50
2022-12-31T11:42:20.666Z,0.40
2022-12-31T11:43:29.876Z,0.73
2022-12-31T11:44:44.212Z,0.60
2022-12-31T11:46:04.257Z,0.70
2022-12-31T11:47:33.657Z,0.50
2022-12-31T11:48:41.589Z,0.75
2022-12-31T11:50:12.399Z,0.70
2022-12-31T11:51:34.570Z,0.50
2022-12-31T11:52:55.395Z,0.50
2022-12-31T11:54:25.550Z,0.65
2022-12-31T11:55:42.393Z,0.80
2022-12-31T11:56:51.448Z,0.75
2022-12-31T11:57:54.861Z,0.55
2022-12-31T11:58:57.952Z,0.80
2022-12-31T12:00:14.514Z,1.80
2022-12-31T12:01:22.586Z,0.70
2022-12-31T12:02:28.930Z,1.00
2022-12-31T12:03:32.082Z,1.08
2022-12-31T12:04:35.138Z,1.05
2022-12-31T12:05:39.458Z,1.00
2022-12-31T12:06:45.619Z,0.80
2022-12-31T12:07:50.741Z,1.30
2022-12-31T12:08:54.501Z,1.00
2022-12-31T12:09:58.248Z,1.08
2022-12-31T12:11:06.287Z,1.10
2022-12-31T12:12:09.532Z,1.02
2022-12-31T12:13:20.020Z,0.90
2022-12-31T12:14:23.085Z,0.95
2022-12-31T12:15:29.733Z,1.13
2022-12-31T12:16:31.694Z,1.00
2022-12-31T12:17:35.464Z,0.85
2022-12-31T12:18:43.376Z,0.70
2022-12-31T12:19:54.793Z,1.00
2022-12-31T12:21:10.850Z,0.93
2022-12-31T12:22:18.876Z,2.28
2022-12-31T12:23:26.297Z,1.05
2022-12-31T12:24:30.911Z,0.90
2022-12-31T12:25:38.062Z,1.00
2022-12-31T12:26:44.512Z,0.82
2022-12-31T12:27:47.552Z,0.70
2022-12-31T12:28:50.410Z,0.90
2022-12-31T12:29:52.361Z,0.90
2022-12-31T12:30:58.131Z,0.77
2022-12-31T12:32:02.738Z,0.60
2022-12-31T12:33:05.718Z,0.70
2022-12-31T12:34:23.888Z,0.63
2022-12-31T12:35:29.157Z,1.00
2022-12-31T12:36:33.175Z,0.70
2022-12-31T12:37:36.216Z,0.50
2022-12-31T12:38:40.824Z,0.85
2022-12-31T12:39:43.727Z,0.70
2022-12-31T12:40:55.903Z,0.65
2022-12-31T12:42:04.432Z,1.00
2022-12-31T12:43:07.638Z,0.90
2022-12-31T12:44:16.823Z,0.80
2022-12-31T12:45:21.333Z,0.80
2022-12-31T12:46:33.104Z,1.00
2022-12-31T12:47:35.425Z,0.85
2022-12-31T12:48:41.691Z,0.70
2022-12-31T12:49:47.663Z,0.82
2022-12-31T12:50:50.145Z,0.77
2022-12-31T12:52:16.363Z,0.80
2022-12-31T12:53:33.439Z,1.00
2022-12-31T12:54:52.169Z,0.70
2022-12-31T12:56:06.185Z,0.90
2022-12-31T12:57:18.416Z,0.85
2022-12-31T12:58:38.326Z,1.02
2022-12-31T13:00:01.386Z,0.73
2022-12-31T13:01:11.709Z,0.95
2022-12-31T13:02:36.793Z,0.80
2022-12-31T13:04:39.581Z,0.70
2022-12-31T13:05:57.756Z,1.00
2022-12-31T13:07:16.999Z,0.82
2022-12-31T13:08:33.460Z,1.00
2022-12-31T13:09:56.793Z,1.02
2022-12-31T13:11:15.790Z,0.80
2022-12-31T13:12:26.457Z,0.88
2022-12-31T13:13:39.002Z,1.00
2022-12-31T13:14:49.776Z,0.95
2022-12-31T13:16:00.873Z,1.02
2022-12-31T13:17:12.831Z,0.90
2022-12-31T13:18:40.419Z,0.90
2022-12-31T13:19:51.777Z,0.82
2022-12-31T13:21:00.464Z,0.80
2022-12-31T13:22:09.664Z,0.82
2022-12-31T13:23:20.543Z,0.80
2022-12-31T13:24:34.468Z,0.73
2022-12-31T13:26:03.266Z,0.63
2022-12-31T13:27:13.637Z,0.70
2022-12-31T13:28:19.307Z,0.93
2022-12-31T13:29:25.931Z,0.73
2022-12-31T13:30:34.507Z,0.80
2022-12-31T13:31:40.350Z,0.50
2022-12-31T13:32:47.121Z,0.82
2022-12-31T13:33:55.214Z,0.90
2022-12-31T13:35:06.167Z,0.60
2022-12-31T13:36:11.587Z,0.50
2022-12-31T13:37:26.135Z,0.50
2022-12-31T13:38:32.851Z,0.55
2022-12-31T13:39:40.859Z,0.50
2022-12-31T13:40:48.958Z,0.75
2022-12-31T13:41:58.728Z,0.60
2022-12-31T13:43:05.836Z,0.57
2022-12-31T13:44:15.844Z,0.75
2022-12-31T13:45:25.671Z,0.60
2022-12-31T13:46:39.914Z,0.70
2022-12-31T13:47:47.313Z,0.77
2022-12-31T13:48:53.803Z,0.70
2022-12-31T13:50:01.982Z,0.50
2022-12-31T13:51:11.901Z,0.65
2022-12-31T13:52:25.955Z,0.80
2022-12-31T13:53:35.905Z,0.75
2022-12-31T13:54:44.918Z,0.70
2022-12-31T13:55:57.842Z,0.85
2022-12-31T13:57:05.934Z,0.70
2022-12-31T13:58:15.623Z,0.70
2022-12-31T13:59:23.632Z,0.98
2022-12-31T14:00:31.074Z,0.95
2022-12-31T14:01:39.858Z,0.80
2022-12-31T14:02:50.163Z,0.95
2022-12-31T14:04:02.082Z,1.00
2022-12-31T14:05:15.039Z,0.80
2022-12-31T14:06:26.561Z,0.60
2022-12-31T14:07:43.481Z,0.50
2022-12-31T14:08:48.519Z,0.50
2022-12-31T14:09:51.583Z,0.60
2022-12-31T14:11:03.038Z,0.68
2022-12-31T14:12:28.040Z,0.73
2022-12-31T14:13:47.419Z,0.60
2022-12-31T14:15:00.043Z,0.60
2022-12-31T14:16:18.185Z,0.70
2022-12-31T14:17:28.575Z,0.60
2022-12-31T14:18:36.289Z,0.60
2022-12-31T14:19:52.347Z,0.82
2022-12-31T14:21:03.771Z,0.60
2022-12-31T14:22:11.724Z,0.88
2022-12-31T14:23:24.945Z,0.90
2022-12-31T14:24:39.286Z,1.38
2022-12-31T14:25:47.558Z,1.08
2022-12-31T14:26:53.711Z,0.80
2022-12-31T14:28:00.709Z,0.93
2022-12-31T14:29:18.994Z,1.10
2022-12-31T14:30:24.216Z,1.40
2022-12-31T14:31:37.062Z,0.88
2022-12-31T14:33:07.027Z,1.13
2022-12-31T14:34:18.717Z,1.33
2022-12-31T14:35:39.827Z,1.10
2022-12-31T14:36:53.322Z,1.63
2022-12-31T14:38:04.295Z,1.80
2022-12-31T14:39:22.913Z,1.70
2022-12-31T14:40:29.848Z,1.83
2022-12-31T14:41:46.060Z,1.67
2022-12-31T14:43:02.022Z,2.20
2022-12-31T14:44:20.910Z,2.13
2022-12-31T14:45:31.610Z,2.00
2022-12-31T14:46:44.207Z,2.25
2022-12-31T14:47:54.670Z,2.85
2022-12-31T14:49:07.587Z,2.50
2022-12-31T14:50:13.162Z,2.30
2022-12-31T14:51:16.764Z,2.40
2022-12-31T14:52:25.213Z,2.58
2022-12-31T14:53:30.315Z,2.35
2022-12-31T14:54:37.687Z,1.92
2022-12-31T14:55:41.791Z,1.77
2022-12-31T14:56:45.370Z,1.75
2022-12-31T14:59:29.468Z,1.60
2022-12-31T15:00:35.162Z,1.38
2022-12-31T15:01:46.194Z,1.50
2022-12-31T15:02:50.598Z,1.65
2022-12-31T15:03:57.788Z,1.45
2022-12-31T15:05:19.345Z,1.45
2022-12-31T15:06:58.538Z,1.45
2022-12-31T15:08:21.569Z,3.70
2022-12-31T15:09:45.217Z,1.02
2022-12-31T15:11:01.493Z,1.20
2022-12-31T15:12:22.198Z,1.00
2022-12-31T15:13:42.695Z,1.20
2022-12-31T15:15:10.919Z,1.08
2022-12-31T15:16:34.508Z,1.10
2022-12-31T15:17:49.952Z,1.25
2022-12-31T15:19:20.788Z,1.20
2022-12-31T15:20:40.587Z,1.52
2022-12-31T15:21:57.410Z,0.80
2022-12-31T15:23:00.571Z,1.48
2022-12-31T15:24:13.422Z,1.90
2022-12-31T15:25:27.443Z,2.40
2022-12-31T15:26:34.620Z,1.50
2022-12-31T15:27:42.195Z,1.00